createdAt,value
2022-10-30T00:00:22.839Z,99.90
2022-10-30T00:05:26.020Z,99.90
2022-10-30T00:10:28.659Z,99.90
2022-10-30T00:15:31.326Z,99.90
2022-10-30T00:20:37.526Z,99.90
2022-10-30T00:25:40.579Z,99.90
2022-10-30T00:30:43.285Z,99.90
2022-10-30T00:35:49.971Z,99.90
2022-10-30T00:40:53.083Z,99.90
2022-10-30T00:45:58.486Z,99.90
2022-10-30T00:51:03.435Z,99.90
2022-10-30T00:56:08.658Z,99.90
2022-10-30T01:01:18.295Z,99.90
2022-10-30T01:06:21.347Z,99.90
2022-10-30T01:11:24.753Z,99.90
2022-10-30T01:16:52.339Z,99.90
2022-10-30T01:22:03.478Z,99.90
2022-10-30T01:27:31.226Z,99.90
2022-10-30T01:33:05.974Z,99.90
2022-10-30T01:38:13.129Z,99.90
2022-10-30T01:43:16.174Z,99.90
2022-10-30T01:48:21.845Z,99.90
2022-10-30T01:53:43.127Z,99.90
2022-10-30T01:59:14.849Z,99.90
2022-10-30T02:04:18.005Z,99.90
2022-10-30T02:09:20.858Z,99.90
2022-10-30T02:14:31.422Z,99.90
2022-10-30T02:19:34.594Z,99.90
2022-10-30T02:24:38.734Z,99.90
2022-10-30T02:29:42.734Z,99.90
2022-10-30T02:34:45.405Z,99.90
2022-10-30T02:39:49.640Z,99.90
2022-10-30T02:44:52.299Z,99.90
2022-10-30T02:49:54.941Z,99.90
2022-10-30T02:54:57.675Z,99.90
2022-10-30T03:00:00.643Z,99.90
2022-10-30T03:05:03.385Z,99.90
2022-10-30T03:10:06.499Z,99.90
2022-10-30T03:15:09.718Z,99.90
2022-10-30T03:20:12.762Z,99.90
2022-10-30T03:25:15.451Z,99.90
2022-10-30T03:30:18.131Z,99.90
2022-10-30T03:35:20.856Z,99.90
2022-10-30T03:40:23.499Z,99.90
2022-10-30T03:45:26.089Z,99.90
2022-10-30T03:50:28.920Z,99.90
2022-10-30T03:55:32.019Z,99.90
2022-10-30T04:00:36.106Z,99.90
2022-10-30T04:05:39.762Z,99.90
2022-10-30T04:10:46.985Z,99.90
2022-10-30T04:15:56.387Z,99.90
2022-10-30T04:21:01.184Z,99.90
2022-10-30T04:26:04.249Z,99.90
2022-10-30T04:31:07.239Z,99.90
2022-10-30T04:36:10.191Z,99.90
2022-10-30T04:41:12.939Z,99.90
2022-10-30T04:46:29.786Z,99.90
2022-10-30T04:51:38.918Z,99.90
2022-10-30T04:56:43.354Z,99.90
2022-10-30T05:01:46.275Z,99.90
2022-10-30T05:06:49.094Z,99.90
2022-10-30T05:11:56.015Z,99.90
2022-10-30T05:17:01.709Z,99.90
2022-10-30T05:22:04.682Z,99.90
2022-10-30T05:27:07.306Z,99.90
2022-10-30T05:32:11.291Z,99.90
2022-10-30T05:37:22.662Z,99.90
2022-10-30T05:42:25.381Z,99.90
2022-10-30T05:47:29.700Z,99.90
2022-10-30T05:52:33.185Z,99.90
2022-10-30T05:57:36.612Z,99.90
2022-10-30T06:02:39.457Z,99.90
2022-10-30T06:07:42.486Z,99.90
2022-10-30T06:12:56.637Z,99.90
2022-10-30T06:18:19.891Z,99.90
2022-10-30T06:23:28.394Z,99.90
2022-10-30T06:28:36.900Z,99.90
2022-10-30T06:33:39.792Z,99.90
2022-10-30T06:38:43.105Z,99.90
2022-10-30T06:43:49.179Z,99.90
2022-10-30T06:48:57.789Z,99.90
2022-10-30T06:55:06.953Z,99.90
2022-10-30T07:00:28.513Z,99.90
2022-10-30T07:05:49.219Z,99.90
2022-10-30T07:10:52.377Z,99.90
2022-10-30T07:16:11.734Z,99.90
2022-10-30T07:21:17.990Z,99.90
2022-10-30T07:26:21.440Z,99.90
2022-10-30T07:31:35.170Z,99.90
2022-10-30T07:37:03.728Z,99.90
2022-10-30T07:42:19.902Z,99.90
2022-10-30T07:47:44.119Z,99.90
2022-10-30T07:53:05.644Z,99.90
2022-10-30T07:58:09.861Z,99.90
2022-10-30T08:03:47.449Z,99.90
2022-10-30T08:09:03.818Z,99.90
2022-10-30T08:14:07.057Z,99.90
2022-10-30T08:19:09.869Z,99.90
2022-10-30T08:24:12.955Z,99.90
2022-10-30T08:29:18.709Z,99.90
2022-10-30T08:34:23.598Z,99.90
2022-10-30T08:39:28.657Z,99.90
2022-10-30T08:44:57.518Z,99.90
2022-10-30T08:50:03.295Z,99.90
2022-10-30T08:55:08.755Z,99.90
2022-10-30T09:00:12.796Z,99.90
2022-10-30T09:05:39.079Z,99.90
2022-10-30T09:10:58.082Z,99.90
2022-10-30T09:16:02.535Z,86.50
2022-10-30T09:21:08.228Z,73.20
2022-10-30T09:26:20.957Z,57.30
2022-10-30T09:31:32.112Z,57.20
2022-10-30T09:36:35.758Z,53.00
2022-10-30T09:42:07.928Z,53.90
2022-10-30T09:47:26.199Z,50.30
2022-10-30T09:52:41.959Z,49.60
2022-10-30T09:57:56.707Z,50.50
2022-10-30T10:03:24.506Z,53.90
2022-10-30T10:08:58.197Z,59.10
2022-10-30T10:14:24.755Z,57.60
2022-10-30T10:19:41.000Z,60.00
2022-10-30T10:24:47.958Z,53.60
2022-10-30T10:30:09.490Z,48.50
2022-10-30T10:35:44.268Z,50.00
2022-10-30T10:40:56.090Z,52.70
2022-10-30T10:46:39.182Z,54.00
2022-10-30T10:51:46.040Z,53.00
2022-10-30T10:56:50.537Z,53.60
2022-10-30T11:02:27.171Z,52.00
2022-10-30T11:07:45.438Z,49.30
2022-10-30T11:12:48.420Z,51.10
2022-10-30T11:18:14.842Z,50.00
2022-10-30T11:23:39.263Z,52.00
2022-10-30T11:28:50.893Z,51.90
2022-10-30T11:33:54.651Z,52.20
2022-10-30T11:39:09.570Z,55.90
2022-10-30T11:44:12.659Z,59.20
2022-10-30T11:49:37.633Z,58.50
2022-10-30T11:54:48.591Z,61.70
2022-10-30T12:00:02.111Z,62.30
2022-10-30T12:05:37.684Z,61.20
2022-10-30T12:10:54.606Z,59.20
2022-10-30T12:16:16.998Z,57.30
2022-10-30T12:21:20.841Z,58.40
2022-10-30T12:26:25.684Z,53.70
2022-10-30T12:31:57.362Z,54.80
2022-10-30T12:37:20.050Z,55.60
2022-10-30T12:42:25.200Z,57.40
2022-10-30T12:47:32.219Z,63.20
2022-10-30T12:52:47.510Z,66.00
2022-10-30T12:57:58.466Z,62.70
2022-10-30T13:03:14.279Z,62.60
2022-10-30T13:08:51.108Z,62.90
2022-10-30T13:13:58.115Z,60.00
2022-10-30T13:19:02.280Z,56.90
2022-10-30T13:24:16.010Z,55.10
2022-10-30T13:29:49.351Z,54.20
2022-10-30T13:34:54.932Z,56.00
2022-10-30T13:40:18.856Z,60.10
2022-10-30T13:46:07.557Z,58.70
2022-10-30T13:51:15.979Z,59.80
2022-10-30T13:56:20.071Z,61.40
2022-10-30T14:01:30.614Z,67.30
2022-10-30T14:06:33.948Z,67.20
2022-10-30T14:11:36.712Z,66.80
2022-10-30T14:16:46.860Z,70.20
2022-10-30T14:21:58.558Z,73.30
2022-10-30T14:27:04.337Z,77.60
2022-10-30T14:32:15.797Z,83.10
2022-10-30T14:37:27.715Z,93.10
2022-10-30T14:42:43.280Z,99.90
2022-10-30T14:47:45.918Z,99.90
2022-10-30T14:53:13.349Z,99.90
2022-10-30T14:58:21.351Z,99.90
2022-10-30T15:04:06.729Z,99.90
2022-10-30T15:09:27.578Z,99.90
2022-10-30T15:14:52.571Z,99.90
2022-10-30T15:19:58.499Z,99.90
2022-10-30T15:25:03.624Z,99.90
2022-10-30T15:30:07.558Z,99.90
2022-10-30T15:35:24.378Z,99.90
2022-10-30T15:40:28.069Z,99.90
2022-10-30T15:45:39.921Z,99.90
2022-10-30T15:50:45.900Z,99.90
2022-10-30T15:55:49.745Z,99.90
2022-10-30T16:01:01.271Z,99.90
2022-10-30T16:06:18.169Z,99.90
2022-10-30T16:11:22.958Z,99.90
2022-10-30T16:16:29.500Z,99.90
2022-10-30T16:21:33.057Z,99.90
2022-10-30T16:26:37.908Z,99.90
2022-10-30T16:31:43.027Z,99.90
2022-10-30T16:36:46.059Z,99.90
2022-10-30T16:41:49.289Z,99.90
2022-10-30T16:47:23.049Z,99.90
2022-10-30T16:52:35.731Z,99.90
2022-10-30T16:57:43.930Z,99.90
2022-10-30T17:02:49.029Z,99.90
2022-10-30T17:08:00.473Z,99.90
2022-10-30T17:13:33.172Z,99.90
2022-10-30T17:18:36.022Z,99.90
2022-10-30T17:23:49.830Z,99.90
2022-10-30T17:28:52.860Z,99.90
2022-10-30T17:34:15.429Z,99.90
2022-10-30T17:39:18.301Z,99.90
2022-10-30T17:44:24.102Z,99.90
2022-10-30T17:49:32.630Z,99.90
2022-10-30T17:54:35.790Z,99.90
2022-10-30T17:59:39.501Z,99.90
2022-10-30T18:04:42.799Z,99.90
2022-10-30T18:09:45.848Z,99.90
2022-10-30T18:14:48.857Z,99.90
2022-10-30T18:19:51.711Z,99.90
2022-10-30T18:24:54.763Z,99.90
2022-10-30T18:29:57.643Z,99.90
2022-10-30T18:35:00.643Z,99.90
2022-10-30T18:40:03.482Z,99.90
2022-10-30T18:45:24.662Z,99.90
2022-10-30T18:57:39.480Z,99.90
2022-10-30T19:02:42.913Z,99.90
2022-10-30T19:07:45.811Z,99.90
2022-10-30T19:13:11.037Z,99.90
2022-10-30T19:18:12.051Z,99.90
2022-10-30T19:23:32.420Z,99.90
2022-10-30T19:28:35.539Z,99.90
2022-10-30T19:33:38.221Z,99.90
2022-10-30T19:38:41.123Z,99.90
2022-10-30T19:43:43.700Z,99.90
2022-10-30T19:49:01.620Z,99.90
2022-10-30T19:54:04.496Z,99.90
2022-10-30T19:59:14.602Z,99.90
2022-10-30T20:04:17.711Z,99.90
2022-10-30T20:09:20.650Z,99.90
2022-10-30T20:14:23.385Z,99.90
2022-10-30T20:19:31.598Z,99.90
2022-10-30T20:24:34.264Z,99.90
2022-10-30T20:29:39.001Z,99.90
2022-10-30T20:34:41.941Z,99.90
2022-10-30T20:39:44.744Z,99.90
2022-10-30T20:44:47.510Z,99.90
2022-10-30T20:49:50.173Z,99.90
2022-10-30T20:54:52.857Z,99.90
2022-10-30T20:59:55.614Z,99.90
2022-10-30T21:05:11.599Z,99.90
2022-10-30T21:10:21.371Z,99.90
2022-10-30T21:15:24.401Z,99.90
2022-10-30T21:20:27.228Z,99.90
2022-10-30T21:25:32.703Z,99.90
2022-10-30T21:30:35.880Z,99.90
2022-10-30T21:35:38.700Z,99.90
2022-10-30T21:40:41.496Z,99.90
2022-10-30T21:45:44.324Z,99.90
2022-10-30T21:50:47.180Z,99.90
2022-10-30T21:55:49.924Z,99.90
2022-10-30T22:00:52.685Z,99.90
2022-10-30T22:05:55.721Z,99.90
2022-10-30T22:11:06.340Z,99.90
2022-10-30T22:16:12.511Z,99.90
2022-10-30T22:21:15.301Z,99.90
2022-10-30T22:26:21.195Z,99.90
2022-10-30T22:31:25.568Z,99.90
2022-10-30T22:36:31.474Z,99.90
2022-10-30T22:41:37.776Z,99.90
2022-10-30T22:46:41.912Z,99.90
2022-10-30T22:51:44.754Z,99.90
2022-10-30T22:56:47.509Z,99.90
2022-10-30T23:01:50.272Z,99.90
2022-10-30T23:06:53.049Z,99.90
2022-10-30T23:11:55.817Z,99.90
2022-10-30T23:16:58.555Z,99.90
2022-10-30T23:22:01.227Z,99.90
2022-10-30T23:27:03.994Z,99.90
2022-10-30T23:32:07.029Z,99.90
2022-10-30T23:37:10.005Z,99.90
2022-10-30T23:42:12.739Z,99.90
2022-10-30T23:47:15.500Z,99.90
2022-10-30T23:52:18.423Z,99.90
2022-10-30T23:57:21.527Z,99.90
